sensor_id;sensor_type;location;lat;lon;timestamp;temperature;humidity
25568;DHT22;13455;51.480;7.594;2022-10-31T00:22:06;15.40;99.90
25568;DHT22;13455;51.480;7.594;2022-10-31T00:24:32;14.90;99.90
25568;DHT22;13455;51.480;7.594;2022-10-31T00:26:57;14.80;99.90
25568;DHT22;13455;51.480;7.594;2022-10-31T00:29:23;14.80;99.90
25568;DHT22;13455;51.480;7.594;2022-10-31T00:31:49;14.70;99.90
25568;DHT22;13455;51.480;7.594;2022-10-31T00:34:14;14.70;99.90
25568;DHT22;13455;51.480;7.594;2022-10-31T00:36:40;14.70;99.90
25568;DHT22;13455;51.480;7.594;2022-10-31T00:39:06;14.70;99.90
25568;DHT22;13455;51.480;7.594;2022-10-31T00:41:31;14.70;99.90
25568;DHT22;13455;51.480;7.594;2022-10-31T00:43:57;14.70;99.90
25568;DHT22;13455;51.480;7.594;2022-10-31T00:46:23;14.70;99.90
25568;DHT22;13455;51.480;7.594;2022-10-31T00:48:48;14.70;99.90
25568;DHT22;13455;51.480;7.594;2022-10-31T00:51:14;14.70;99.90
25568;DHT22;13455;51.480;7.594;2022-10-31T00:53:39;14.90;99.90
25568;DHT22;13455;51.480;7.594;2022-10-31T00:56:05;14.70;99.90
25568;DHT22;13455;51.480;7.594;2022-10-31T00:58:31;14.70;99.90
25568;DHT22;13455;51.480;7.594;2022-10-31T01:00:57;14.80;99.90
25568;DHT22;13455;51.480;7.594;2022-10-31T01:03:25;14.70;99.90
25568;DHT22;13455;51.480;7.594;2022-10-31T01:08:25;14.70;99.90
25568;DHT22;13455;51.480;7.594;2022-10-31T01:13:32;14.60;99.90
25568;DHT22;13455;51.480;7.594;2022-10-31T01:15:59;14.60;99.90
25568;DHT22;13455;51.480;7.594;2022-10-31T01:18:25;14.60;99.90
25568;DHT22;13455;51.480;7.594;2022-10-31T01:21:03;14.70;99.90
25568;DHT22;13455;51.480;7.594;2022-10-31T01:23:29;14.50;99.90
25568;DHT22;13455;51.480;7.594;2022-10-31T01:26:22;14.50;99.90
25568;DHT22;13455;51.480;7.594;2022-10-31T01:31:26;14.50;99.90
25568;DHT22;13455;51.480;7.594;2022-10-31T01:33:52;14.50;99.90
25568;DHT22;13455;51.480;7.594;2022-10-31T01:36:21;14.60;99.90
25568;DHT22;13455;51.480;7.594;2022-10-31T01:38:48;14.80;99.90
25568;DHT22;13455;51.480;7.594;2022-10-31T01:41:16;14.50;99.90
25568;DHT22;13455;51.480;7.594;2022-10-31T01:43:52;14.50;99.90
25568;DHT22;13455;51.480;7.594;2022-10-31T01:46:32;14.60;99.90
25568;DHT22;13455;51.480;7.594;2022-10-31T01:49:01;14.60;99.90
25568;DHT22;13455;51.480;7.594;2022-10-31T01:51:34;14.50;99.90
25568;DHT22;13455;51.480;7.594;2022-10-31T01:54:05;14.80;99.90
25568;DHT22;13455;51.480;7.594;2022-10-31T01:56:34;14.80;99.90
25568;DHT22;13455;51.480;7.594;2022-10-31T01:59:05;14.60;99.90
25568;DHT22;13455;51.480;7.594;2022-10-31T02:01:33;14.90;99.90
25568;DHT22;13455;51.480;7.594;2022-10-31T02:03:59;14.80;99.90
25568;DHT22;13455;51.480;7.594;2022-10-31T02:06:37;14.60;99.90
25568;DHT22;13455;51.480;7.594;2022-10-31T02:09:05;14.60;99.90
25568;DHT22;13455;51.480;7.594;2022-10-31T02:11:31;15.00;99.90
25568;DHT22;13455;51.480;7.594;2022-10-31T02:13:59;14.80;99.90
25568;DHT22;13455;51.480;7.594;2022-10-31T02:16:25;14.90;99.90
25568;DHT22;13455;51.480;7.594;2022-10-31T02:18:51;14.70;99.90
25568;DHT22;13455;51.480;7.594;2022-10-31T02:27:12;14.60;99.90
25568;DHT22;13455;51.480;7.594;2022-10-31T02:30:05;14.70;99.90
25568;DHT22;13455;51.480;7.594;2022-10-31T02:32:43;14.60;99.90
25568;DHT22;13455;51.480;7.594;2022-10-31T02:37:56;14.50;99.90
25568;DHT22;13455;51.480;7.594;2022-10-31T02:40:27;14.50;99.90
25568;DHT22;13455;51.480;7.594;2022-10-31T02:46:13;14.30;99.90
25568;DHT22;13455;51.480;7.594;2022-10-31T02:48:41;14.30;99.90
25568;DHT22;13455;51.480;7.594;2022-10-31T02:51:10;14.30;99.90
25568;DHT22;13455;51.480;7.594;2022-10-31T02:53:37;14.40;99.90
25568;DHT22;13455;51.480;7.594;2022-10-31T03:12:12;14.20;99.90
25568;DHT22;13455;51.480;7.594;2022-10-31T03:17:14;14.10;99.90
25568;DHT22;13455;51.480;7.594;2022-10-31T03:22:22;13.90;99.90
25568;DHT22;13455;51.480;7.594;2022-10-31T05:35:21;13.20;99.90
25568;DHT22;13455;51.480;7.594;2022-10-31T05:45:09;13.10;99.90
25568;DHT22;13455;51.480;7.594;2022-10-31T05:47:35;13.00;99.90
25568;DHT22;13455;51.480;7.594;2022-10-31T05:50:01;13.00;99.90
25568;DHT22;13455;51.480;7.594;2022-10-31T05:52:27;13.00;99.90
25568;DHT22;13455;51.480;7.594;2022-10-31T05:54:52;13.00;99.90
25568;DHT22;13455;51.480;7.594;2022-10-31T05:57:18;13.30;99.90
25568;DHT22;13455;51.480;7.594;2022-10-31T05:59:43;13.00;99.90
25568;DHT22;13455;51.480;7.594;2022-10-31T06:02:09;13.00;99.90
25568;DHT22;13455;51.480;7.594;2022-10-31T06:04:35;13.00;99.90
25568;DHT22;13455;51.480;7.594;2022-10-31T06:07:00;13.00;99.90
25568;DHT22;13455;51.480;7.594;2022-10-31T06:09:26;13.00;99.90
25568;DHT22;13455;51.480;7.594;2022-10-31T06:11:52;12.90;99.90
25568;DHT22;13455;51.480;7.594;2022-10-31T06:14:17;13.20;99.90
25568;DHT22;13455;51.480;7.594;2022-10-31T06:16:43;13.20;99.90
25568;DHT22;13455;51.480;7.594;2022-10-31T06:19:08;12.90;99.90
25568;DHT22;13455;51.480;7.594;2022-10-31T06:21:34;12.80;99.90
25568;DHT22;13455;51.480;7.594;2022-10-31T06:23:59;12.80;99.90
25568;DHT22;13455;51.480;7.594;2022-10-31T06:26:25;12.90;99.90
25568;DHT22;13455;51.480;7.594;2022-10-31T06:28:51;13.00;99.90
25568;DHT22;13455;51.480;7.594;2022-10-31T06:31:16;13.00;99.90
25568;DHT22;13455;51.480;7.594;2022-10-31T06:33:42;12.70;99.90
25568;DHT22;13455;51.480;7.594;2022-10-31T06:36:08;12.70;99.90
25568;DHT22;13455;51.480;7.594;2022-10-31T06:38:34;12.80;99.90
25568;DHT22;13455;51.480;7.594;2022-10-31T06:41:04;12.70;99.90
25568;DHT22;13455;51.480;7.594;2022-10-31T06:43:30;12.70;99.90
25568;DHT22;13455;51.480;7.594;2022-10-31T06:45:56;12.70;99.90
25568;DHT22;13455;51.480;7.594;2022-10-31T06:48:22;12.70;99.90
25568;DHT22;13455;51.480;7.594;2022-10-31T09:52:38;15.80;99.90
25568;DHT22;13455;51.480;7.594;2022-10-31T09:57:39;15.90;99.90
25568;DHT22;13455;51.480;7.594;2022-10-31T10:00:14;15.90;99.90
25568;DHT22;13455;51.480;7.594;2022-10-31T10:02:56;16.00;99.90
25568;DHT22;13455;51.480;7.594;2022-10-31T10:05:43;16.20;99.90
25568;DHT22;13455;51.480;7.594;2022-10-31T10:08:32;16.20;99.90
25568;DHT22;13455;51.480;7.594;2022-10-31T10:18:47;16.50;99.90
25568;DHT22;13455;51.480;7.594;2022-10-31T10:42:39;17.30;99.90
25568;DHT22;13455;51.480;7.594;2022-10-31T10:45:23;17.50;99.90
25568;DHT22;13455;51.480;7.594;2022-10-31T10:57:11;17.80;99.90
25568;DHT22;13455;51.480;7.594;2022-10-31T10:59:37;18.00;99.90
25568;DHT22;13455;51.480;7.594;2022-10-31T11:02:08;18.00;99.90
25568;DHT22;13455;51.480;7.594;2022-10-31T11:04:40;18.10;99.90
25568;DHT22;13455;51.480;7.594;2022-10-31T11:09:35;18.60;99.90
25568;DHT22;13455;51.480;7.594;2022-10-31T11:12:19;18.60;99.90
25568;DHT22;13455;51.480;7.594;2022-10-31T11:33:31;21.00;99.90
25568;DHT22;13455;51.480;7.594;2022-10-31T11:38:29;21.50;99.90
25568;DHT22;13455;51.480;7.594;2022-10-31T11:45:53;22.20;99.90
25568;DHT22;13455;51.480;7.594;2022-10-31T13:01:45;23.20;99.90
25568;DHT22;13455;51.480;7.594;2022-10-31T13:59:53;22.40;99.90
25568;DHT22;13455;51.480;7.594;2022-10-31T14:02:31;22.30;99.90
25568;DHT22;13455;51.480;7.594;2022-10-31T14:05:23;22.20;99.90
25568;DHT22;13455;51.480;7.594;2022-10-31T14:07:47;22.20;99.90
25568;DHT22;13455;51.480;7.594;2022-10-31T14:10:26;22.20;99.90
25568;DHT22;13455;51.480;7.594;2022-10-31T14:13:03;22.10;99.90
25568;DHT22;13455;51.480;7.594;2022-10-31T14:15:33;21.90;99.90
25568;DHT22;13455;51.480;7.594;2022-10-31T14:22:58;21.60;99.90
25568;DHT22;13455;51.480;7.594;2022-10-31T14:25:35;21.60;99.90
25568;DHT22;13455;51.480;7.594;2022-10-31T14:30:29;21.40;99.90
25568;DHT22;13455;51.480;7.594;2022-10-31T14:32:58;21.30;99.90
25568;DHT22;13455;51.480;7.594;2022-10-31T14:38:54;21.30;99.90
25568;DHT22;13455;51.480;7.594;2022-10-31T14:41:25;21.30;99.90
25568;DHT22;13455;51.480;7.594;2022-10-31T15:01:57;21.10;99.90
25568;DHT22;13455;51.480;7.594;2022-10-31T15:04:27;21.10;99.90
25568;DHT22;13455;51.480;7.594;2022-10-31T15:07:12;21.00;99.90
25568;DHT22;13455;51.480;7.594;2022-10-31T15:32:47;20.40;99.90
25568;DHT22;13455;51.480;7.594;2022-10-31T15:35:23;20.30;99.90
25568;DHT22;13455;51.480;7.594;2022-10-31T15:37:51;20.20;99.90
25568;DHT22;13455;51.480;7.594;2022-10-31T15:50:39;20.00;99.90
25568;DHT22;13455;51.480;7.594;2022-10-31T15:53:16;20.00;99.90
25568;DHT22;13455;51.480;7.594;2022-10-31T16:20:52;19.60;99.90
25568;DHT22;13455;51.480;7.594;2022-10-31T19:08:04;17.00;99.90
25568;DHT22;13455;51.480;7.594;2022-10-31T19:10:33;17.00;99.90
25568;DHT22;13455;51.480;7.594;2022-10-31T20:31:25;16.00;99.90
25568;DHT22;13455;51.480;7.594;2022-10-31T21:03:18;15.90;99.90
25568;DHT22;13455;51.480;7.594;2022-10-31T21:42:21;16.00;99.90
25568;DHT22;13455;51.480;7.594;2022-10-31T21:44:51;15.70;99.90
25568;DHT22;13455;51.480;7.594;2022-10-31T21:47:16;15.80;99.90
25568;DHT22;13455;51.480;7.594;2022-10-31T21:49:42;15.80;99.90
25568;DHT22;13455;51.480;7.594;2022-10-31T21:52:10;16.40;99.90
25568;DHT22;13455;51.480;7.594;2022-10-31T21:54:36;15.50;99.90
25568;DHT22;13455;51.480;7.594;2022-10-31T21:57:03;15.70;99.90
25568;DHT22;13455;51.480;7.594;2022-10-31T21:59:30;15.70;99.90
25568;DHT22;13455;51.480;7.594;2022-10-31T22:01:56;15.40;99.90
25568;DHT22;13455;51.480;7.594;2022-10-31T22:04:24;15.60;99.90
25568;DHT22;13455;51.480;7.594;2022-10-31T22:06:50;15.60;99.90
25568;DHT22;13455;51.480;7.594;2022-10-31T22:09:16;15.70;99.90
25568;DHT22;13455;51.480;7.594;2022-10-31T22:11:44;15.50;99.90
25568;DHT22;13455;51.480;7.594;2022-10-31T22:14:11;15.60;99.90
25568;DHT22;13455;51.480;7.594;2022-10-31T22:16:38;15.80;99.90
25568;DHT22;13455;51.480;7.594;2022-10-31T22:19:05;15.60;99.90
25568;DHT22;13455;51.480;7.594;2022-10-31T22:21:36;15.90;99.90
25568;DHT22;13455;51.480;7.594;2022-10-31T22:24:02;16.00;99.90
25568;DHT22;13455;51.480;7.594;2022-10-31T22:26:27;15.80;99.90
25568;DHT22;13455;51.480;7.594;2022-10-31T22:28:55;16.00;99.90
25568;DHT22;13455;51.480;7.594;2022-10-31T22:31:23;15.90;99.90
25568;DHT22;13455;51.480;7.594;2022-10-31T22:33:49;16.10;99.90
25568;DHT22;13455;51.480;7.594;2022-10-31T22:36:18;16.20;99.90
25568;DHT22;13455;51.480;7.594;2022-10-31T22:38:45;16.20;99.90
25568;DHT22;13455;51.480;7.594;2022-10-31T22:43:38;16.20;99.90
25568;DHT22;13455;51.480;7.594;2022-10-31T22:53:37;16.00;99.90
25568;DHT22;13455;51.480;7.594;2022-10-31T22:56:04;16.20;99.90
25568;DHT22;13455;51.480;7.594;2022-10-31T22:58:31;16.30;99.90
25568;DHT22;13455;51.480;7.594;2022-10-31T23:00:57;16.10;99.90
25568;DHT22;13455;51.480;7.594;2022-10-31T23:03:24;16.50;99.90
25568;DHT22;13455;51.480;7.594;2022-10-31T23:05:56;16.30;99.90
25568;DHT22;13455;51.480;7.594;2022-10-31T23:08:23;16.40;99.90
25568;DHT22;13455;51.480;7.594;2022-10-31T23:10:48;16.50;99.90
25568;DHT22;13455;51.480;7.594;2022-10-31T23:13:14;16.30;99.90
25568;DHT22;13455;51.480;7.594;2022-10-31T23:16:07;16.70;99.90
25568;DHT22;13455;51.480;7.594;2022-10-31T23:18:34;16.60;99.90
25568;DHT22;13455;51.480;7.594;2022-10-31T23:35:56;17.10;99.90
25568;DHT22;13455;51.480;7.594;2022-10-31T23:38:21;17.00;99.90
25568;DHT22;13455;51.480;7.594;2022-10-31T23:40:47;17.00;99.90
25568;DHT22;13455;51.480;7.594;2022-10-31T23:43:12;16.80;99.90
25568;DHT22;13455;51.480;7.594;2022-10-31T23:45:41;16.90;99.90
25568;DHT22;13455;51.480;7.594;2022-10-31T23:48:07;17.00;99.90
25568;DHT22;13455;51.480;7.594;2022-10-31T23:50:34;16.90;99.90
25568;DHT22;13455;51.480;7.594;2022-10-31T23:52:59;17.00;99.90
25568;DHT22;13455;51.480;7.594;2022-10-31T23:55:25;16.90;99.90
25568;DHT22;13455;51.480;7.594;2022-10-31T23:57:51;17.10;99.90
